world map with XMN marked

XMN - Airport

This information may not be accurate or current and is not valid for navigation or flight planning. No warranty of fitness for any purpose is made or implied.

flag of China

Donate via PayPal

Additional information is available on the NEW Great Circle Mapper

Location
City:  Xiamen, Fujian, China
Name:Gaoqi International Airport
ICAO / IATA:ZSAM / XMN

Details
Type:Airport (Aerodrome, Airfield)
Use:Public/Civil
Latitude:24°33'N (24.545)
Longitude:118°08'E (118.127)
Elevation:59 ft (18 m)
Runways:1
Longest:11155 × 148 ft (3400 × 45 m)

Time
Timezone:UTC+8 (DST+10)
Local Time:

Weather
METAR:ZSAM  041400Z 09004MPS 8000 OVC033 16/10 Q1021 NOSIG
TAF:ZSAM  (expired)

Related Locations
Nearby:
Farthest:LLS: 12362 mi / 19895 km
Las Lomitas [Alferez Armando Rodriguez], P, AR

Find:

   beyond  
but within

Other Information
Maps:
Sources:

  

Airport Diagram

Airport diagram for XMN

Airport diagram PDF

 


Great Circle Mapper   Great Circle Mapper
Great Circle Mapper FAQ   Great Circle Mapper FAQ
  Karl's Home Page
KLSē   KLSē Home
   GC on Facebook
Airlines of the World   Airlines of the World
Donate via PayPal


Copyright © 2004-2020, Karl L. Swartz. All rights reserved.
All trademarks mentioned herein belong to their respective owners.

Please see credits for attribution and copyright information.

Karl Swartz <karl@kls2.com>
  Powered by FreeBSD
Valid HTML 4.01!
Labeled with ICRA
hCard Microformat
Geo Microformat